Time,TemperatureF,DewpointF,PressureIn,WindDirection,WindDirectionDegrees,WindSpeedMPH,WindSpeedGustMPH,Humidity,HourlyPrecipIn,Conditions,Clouds,dailyrainin,SoftwareType,DateUTC
2013-02-05 00:09:00,37.6,33.0,29.57,East,97,2.0,6.0,83,0.00,,,0.00,weatherlink.com 1.10,2013-02-05 10:09:00,
2013-02-05 00:24:00,37.2,33.0,29.57,ENE,63,2.0,5.0,85,0.00,,,0.00,weatherlink.com 1.10,2013-02-05 10:24:00,
2013-02-05 00:39:00,36.6,33.0,29.57,East,84,1.0,5.0,86,0.00,,,0.00,weatherlink.com 1.10,2013-02-05 10:39:00,
2013-02-05 00:54:00,36.6,33.0,29.56,East,83,2.0,4.0,87,0.00,,,0.00,weatherlink.com 1.10,2013-02-05 10:54:00,
2013-02-05 01:09:00,36.8,33.0,29.56,ENE,65,1.0,5.0,86,0.00,,,0.00,weatherlink.com 1.10,2013-02-05 11:09:00,
2013-02-05 01:24:00,37.1,33.0,29.56,ESE,109,1.0,7.0,85,0.00,,,0.00,weatherlink.com 1.10,2013-02-05 11:24:00,
2013-02-05 01:39:00,37.1,33.0,29.56,NE,40,0.0,9.0,85,0.00,,,0.00,weatherlink.com 1.10,2013-02-05 11:39:00,
2013-02-05 01:54:00,36.9,33.0,29.55,NE,49,0.0,2.0,87,0.00,,,0.00,weatherlink.com 1.10,2013-02-05 11:54:00,
2013-02-05 02:09:00,36.8,33.0,29.55,ENE,67,1.0,8.0,86,0.00,,,0.00,weatherlink.com 1.10,2013-02-05 12:09:00,
2013-02-05 02:24:00,36.8,33.0,29.55,NE,40,4.0,5.0,85,0.00,,,0.00,weatherlink.com 1.10,2013-02-05 12:24:00,
2013-02-05 02:39:00,36.2,33.0,29.54,SE,128,2.0,6.0,87,0.00,,,0.00,weatherlink.com 1.10,2013-02-05 12:39:00,
2013-02-05 02:54:00,35.7,33.0,29.54,SE,128,2.0,2.0,89,0.00,,,0.00,weatherlink.com 1.10,2013-02-05 12:54:00,
2013-02-05 03:09:00,35.5,33.0,29.54,SE,128,0.0,1.0,90,0.00,,,0.00,weatherlink.com 1.10,2013-02-05 13:09:00,
2013-02-05 03:25:00,35.5,33.0,29.53,SE,128,0.0,1.0,91,0.00,,,0.00,weatherlink.com 1.10,2013-02-05 13:25:00,
2013-02-05 03:40:00,35.1,33.0,29.53,SE,128,1.0,1.0,91,0.00,,,0.00,weatherlink.com 1.10,2013-02-05 13:40:00,
2013-02-05 03:55:00,34.8,33.0,29.53,SE,128,0.0,4.0,93,0.00,,,0.00,weatherlink.com 1.10,2013-02-05 13:55:00,
2013-02-05 04:10:00,34.1,32.0,29.53,NNE,32,2.0,6.0,93,0.00,,,0.00,weatherlink.com 1.10,2013-02-05 14:10:00,
2013-02-05 04:25:00,34.2,32.0,29.53,NNE,32,2.0,2.0,93,0.00,,,0.00,weatherlink.com 1.10,2013-02-05 14:25:00,
2013-02-05 04:40:00,33.7,32.0,29.53,ENE,66,4.0,4.0,93,0.00,,,0.00,weatherlink.com 1.10,2013-02-05 14:40:00,
2013-02-05 04:55:00,33.7,32.0,29.53,East,98,0.0,4.0,94,0.00,,,0.00,weatherlink.com 1.10,2013-02-05 14:55:00,
2013-02-05 05:10:00,33.8,32.0,29.52,East,98,2.0,2.0,94,0.00,,,0.00,weatherlink.com 1.10,2013-02-05 15:10:00,
2013-02-05 05:25:00,33.7,32.0,29.52,East,98,2.0,3.0,94,0.00,,,0.00,weatherlink.com 1.10,2013-02-05 15:25:00,
2013-02-05 05:40:00,33.6,32.0,29.52,East,98,2.0,2.0,94,0.00,,,0.00,weatherlink.com 1.10,2013-02-05 15:40:00,
2013-02-05 05:55:00,33.6,32.0,29.52,East,98,0.0,4.0,94,0.00,,,0.00,weatherlink.com 1.10,2013-02-05 15:55:00,
2013-02-05 06:10:00,33.3,32.0,29.52,SE,136,0.0,2.0,94,0.00,,,0.00,weatherlink.com 1.10,2013-02-05 16:10:00,
2013-02-05 06:25:00,33.3,32.0,29.52,ENE,74,4.0,5.0,94,0.00,,,0.00,weatherlink.com 1.10,2013-02-05 16:25:00,
2013-02-05 06:40:00,32.9,32.0,29.52,ENE,76,2.0,4.0,95,0.00,,,0.00,weatherlink.com 1.10,2013-02-05 16:40:00,
2013-02-05 06:55:00,33.0,32.0,29.52,ENE,76,0.0,1.0,95,0.00,,,0.00,weatherlink.com 1.10,2013-02-05 16:55:00,
2013-02-05 07:10:00,32.5,31.0,29.51,ENE,76,1.0,2.0,94,0.00,,,0.00,weatherlink.com 1.10,2013-02-05 17:10:00,
2013-02-05 07:25:00,31.9,30.0,29.51,ENE,76,3.0,4.0,94,0.00,,,0.00,weatherlink.com 1.10,2013-02-05 17:25:00,
2013-02-05 07:40:00,31.7,31.0,29.51,ENE,76,0.0,1.0,95,0.00,,,0.00,weatherlink.com 1.10,2013-02-05 17:40:00,
2013-02-05 07:55:00,31.5,30.0,29.51,East,87,1.0,3.0,95,0.00,,,0.00,weatherlink.com 1.10,2013-02-05 17:55:00,
2013-02-05 08:10:00,31.3,30.0,29.51,ENE,67,0.0,4.0,95,0.00,,,0.00,weatherlink.com 1.10,2013-02-05 18:10:00,
2013-02-05 08:25:00,31.5,30.0,29.51,ENE,67,0.0,2.0,95,0.00,,,0.00,weatherlink.com 1.10,2013-02-05 18:25:00,
2013-02-05 08:40:00,31.3,30.0,29.51,East,80,2.0,5.0,95,0.00,,,0.00,weatherlink.com 1.10,2013-02-05 18:40:00,
2013-02-05 08:55:00,31.5,30.0,29.51,East,80,1.0,4.0,95,0.00,,,0.00,weatherlink.com 1.10,2013-02-05 18:55:00,
2013-02-05 09:10:00,31.7,31.0,29.50,East,80,0.0,2.0,95,0.00,,,0.00,weatherlink.com 1.10,2013-02-05 19:10:00,
2013-02-05 09:25:00,32.3,31.0,29.50,East,80,0.0,2.0,96,0.00,,,0.00,weatherlink.com 1.10,2013-02-05 19:25:00,
2013-02-05 09:40:00,33.6,33.0,29.50,East,80,0.0,2.0,96,0.00,,,0.00,weatherlink.com 1.10,2013-02-05 19:40:00,
2013-02-05 09:55:00,34.2,33.0,29.49,East,80,2.0,2.0,94,0.00,,,0.00,weatherlink.com 1.10,2013-02-05 19:55:00,
2013-02-05 10:10:00,35.0,33.0,29.49,East,88,2.0,3.0,93,0.00,,,0.00,weatherlink.com 1.10,2013-02-05 20:10:00,
2013-02-05 10:25:00,36.2,34.0,29.49,East,84,0.0,4.0,93,0.00,,,0.00,weatherlink.com 1.10,2013-02-05 20:25:00,
2013-02-05 10:40:00,36.9,34.0,29.49,SSE,148,5.0,5.0,88,0.00,,,0.00,weatherlink.com 1.10,2013-02-05 20:40:00,
2013-02-05 10:55:00,35.7,33.0,29.49,SSE,148,0.0,5.0,91,0.00,,,0.00,weatherlink.com 1.10,2013-02-05 20:55:00,
2013-02-05 11:10:00,37.8,34.0,29.49,SSE,148,0.0,4.0,87,0.00,,,0.00,weatherlink.com 1.10,2013-02-05 21:10:00,
2013-02-05 11:25:00,39.7,35.0,29.49,SSE,148,0.0,0.0,84,0.00,,,0.00,weatherlink.com 1.10,2013-02-05 21:25:00,
2013-02-05 11:40:00,40.4,34.0,29.48,SSE,148,2.0,2.0,79,0.00,,,0.00,weatherlink.com 1.10,2013-02-05 21:40:00,
2013-02-05 11:55:00,40.3,35.0,29.48,SSE,148,0.0,1.0,82,0.00,,,0.00,weatherlink.com 1.10,2013-02-05 21:55:00,
2013-02-05 12:10:00,40.7,35.0,29.48,SSE,148,0.0,2.0,80,0.00,,,0.00,weatherlink.com 1.10,2013-02-05 22:10:00,
2013-02-05 12:25:00,38.7,34.0,29.48,NW,313,5.0,9.0,83,0.00,,,0.00,weatherlink.com 1.10,2013-02-05 22:25:00,
2013-02-05 12:40:00,38.2,34.0,29.48,WNW,288,2.0,7.0,84,0.00,,,0.00,weatherlink.com 1.10,2013-02-05 22:40:00,
2013-02-05 12:55:00,37.9,34.0,29.48,West,271,7.0,8.0,85,0.00,,,0.00,weatherlink.com 1.10,2013-02-05 22:55:00,
2013-02-05 13:10:00,37.5,34.0,29.48,NW,323,6.0,10.0,87,0.00,,,0.00,weatherlink.com 1.10,2013-02-05 23:10:00,
2013-02-05 13:25:00,37.5,34.0,29.48,West,277,7.0,8.0,88,0.00,,,0.00,weatherlink.com 1.10,2013-02-05 23:25:00,
2013-02-05 13:40:00,37.3,34.0,29.48,WNW,289,4.0,7.0,88,0.00,,,0.00,weatherlink.com 1.10,2013-02-05 23:40:00,
2013-02-05 13:55:00,38.2,35.0,29.48,West,262,2.0,6.0,88,0.00,,,0.00,weatherlink.com 1.10,2013-02-05 23:55:00,
2013-02-05 14:10:00,37.7,34.0,29.47,WNW,284,4.0,7.0,86,0.00,,,0.00,weatherlink.com 1.10,2013-02-06 00:10:00,
2013-02-05 14:25:00,37.5,34.0,29.47,WNW,290,6.0,7.0,86,0.00,,,0.00,weatherlink.com 1.10,2013-02-06 00:25:00,
2013-02-05 14:40:00,37.3,34.0,29.47,West,281,7.0,9.0,87,0.00,,,0.00,weatherlink.com 1.10,2013-02-06 00:40:00,
2013-02-05 14:55:00,37.0,34.0,29.47,West,273,4.0,7.0,88,0.00,,,0.00,weatherlink.com 1.10,2013-02-06 00:55:00,
2013-02-05 15:10:00,37.0,34.0,29.46,WNW,284,2.0,6.0,87,0.00,,,0.00,weatherlink.com 1.10,2013-02-06 01:10:00,
2013-02-05 15:25:00,36.6,33.0,29.46,WNW,292,1.0,6.0,88,0.00,,,0.00,weatherlink.com 1.10,2013-02-06 01:25:00,
2013-02-05 15:40:00,36.4,33.0,29.46,WNW,292,1.0,3.0,87,0.00,,,0.00,weatherlink.com 1.10,2013-02-06 01:40:00,
2013-02-05 15:56:00,36.1,33.0,29.46,WNW,292,1.0,1.0,89,0.00,,,0.00,weatherlink.com 1.10,2013-02-06 01:56:00,
2013-02-05 16:11:00,35.8,33.0,29.46,WNW,292,0.0,2.0,90,0.00,,,0.00,weatherlink.com 1.10,2013-02-06 02:11:00,
2013-02-05 16:26:00,35.1,33.0,29.46,North,5,2.0,4.0,90,0.00,,,0.00,weatherlink.com 1.10,2013-02-06 02:26:00,
2013-02-05 16:41:00,34.8,33.0,29.46,SW,219,1.0,7.0,91,0.00,,,0.00,weatherlink.com 1.10,2013-02-06 02:41:00,
2013-02-05 16:56:00,34.2,32.0,29.47,SW,219,2.0,2.0,91,0.00,,,0.00,weatherlink.com 1.10,2013-02-06 02:56:00,
2013-02-05 17:11:00,33.9,32.0,29.46,SW,219,0.0,2.0,92,0.00,,,0.00,weatherlink.com 1.10,2013-02-06 03:11:00,
2013-02-05 17:26:00,33.3,31.0,29.47,SE,124,1.0,3.0,92,0.00,,,0.00,weatherlink.com 1.10,2013-02-06 03:26:00,
2013-02-05 17:41:00,33.0,31.0,29.47,ESE,123,1.0,2.0,93,0.00,,,0.00,weatherlink.com 1.10,2013-02-06 03:41:00,
2013-02-05 17:56:00,33.0,31.0,29.46,ESE,123,1.0,2.0,93,0.00,,,0.00,weatherlink.com 1.10,2013-02-06 03:56:00,
2013-02-05 18:11:00,33.0,31.0,29.47,SE,124,1.0,2.0,93,0.00,,,0.00,weatherlink.com 1.10,2013-02-06 04:11:00,
2013-02-05 18:26:00,33.3,32.0,29.46,SE,124,0.0,4.0,94,0.00,,,0.00,weatherlink.com 1.10,2013-02-06 04:26:00,
2013-02-05 18:41:00,33.2,32.0,29.46,SE,124,6.0,6.0,94,0.00,,,0.00,weatherlink.com 1.10,2013-02-06 04:41:00,
2013-02-05 18:56:00,33.0,31.0,29.45,SE,144,2.0,5.0,93,0.00,,,0.00,weatherlink.com 1.10,2013-02-06 04:56:00,
2013-02-05 19:26:00,32.4,31.0,29.45,SE,144,2.0,4.0,94,0.00,,,0.00,weatherlink.com 1.10,2013-02-06 05:26:00,
2013-02-05 19:41:00,32.4,31.0,29.46,SE,144,2.0,4.0,94,0.00,,,0.00,weatherlink.com 1.10,2013-02-06 05:41:00,
2013-02-05 19:56:00,31.9,30.0,29.46,SE,144,0.0,2.0,94,0.00,,,0.00,weatherlink.com 1.10,2013-02-06 05:56:00,
2013-02-05 20:11:00,31.6,30.0,29.46,SE,144,0.0,2.0,94,0.00,,,0.00,weatherlink.com 1.10,2013-02-06 06:11:00,
2013-02-05 20:26:00,31.5,30.0,29.46,SE,144,1.0,2.0,94,0.00,,,0.00,weatherlink.com 1.10,2013-02-06 06:26:00,
2013-02-05 20:41:00,31.1,30.0,29.46,SE,144,1.0,2.0,94,0.00,,,0.00,weatherlink.com 1.10,2013-02-06 06:41:00,
2013-02-05 20:56:00,30.9,30.0,29.46,SE,144,0.0,2.0,95,0.00,,,0.00,weatherlink.com 1.10,2013-02-06 06:56:00,
2013-02-05 21:11:00,30.7,30.0,29.46,SE,144,1.0,3.0,95,0.00,,,0.00,weatherlink.com 1.10,2013-02-06 07:11:00,
2013-02-05 21:26:00,30.3,29.0,29.46,SE,144,2.0,3.0,95,0.00,,,0.00,weatherlink.com 1.10,2013-02-06 07:26:00,
2013-02-05 21:41:00,29.9,29.0,29.46,SE,144,0.0,2.0,95,0.00,,,0.00,weatherlink.com 1.10,2013-02-06 07:41:00,
2013-02-05 21:56:00,30.2,29.0,29.46,SE,144,1.0,2.0,95,0.00,,,0.00,weatherlink.com 1.10,2013-02-06 07:56:00,
2013-02-05 22:11:00,30.2,29.0,29.46,SE,144,0.0,2.0,95,0.00,,,0.00,weatherlink.com 1.10,2013-02-06 08:11:00,
2013-02-05 22:26:00,30.1,29.0,29.46,SE,144,0.0,2.0,95,0.00,,,0.00,weatherlink.com 1.10,2013-02-06 08:26:00,
2013-02-05 22:41:00,30.2,29.0,29.46,SE,144,1.0,2.0,95,0.00,,,0.00,weatherlink.com 1.10,2013-02-06 08:41:00,
2013-02-05 22:56:00,30.2,29.0,29.46,SE,144,0.0,1.0,96,0.00,,,0.00,weatherlink.com 1.10,2013-02-06 08:56:00,
2013-02-05 23:11:00,30.6,30.0,29.46,SE,144,1.0,5.0,96,0.00,,,0.00,weatherlink.com 1.10,2013-02-06 09:11:00,
2013-02-05 23:26:00,30.5,30.0,29.46,SE,144,3.0,4.0,96,0.00,,,0.00,weatherlink.com 1.10,2013-02-06 09:26:00,
2013-02-05 23:41:00,30.6,30.0,29.46,SE,144,2.0,2.0,96,0.00,,,0.00,weatherlink.com 1.10,2013-02-06 09:41:00,
2013-02-05 23:56:00,30.9,30.0,29.46,SE,144,0.0,2.0,96,0.00,,,0.00,weatherlink.com 1.10,2013-02-06 09:56:00,